Time;durP1;ratioP1;P1;durP2;ratioP2;P2;SDS_P1;SDS_P2;PMS_P1;PMS_P2;Temp;Humidity;BMP_temperature;BMP_pressure;BME280_temperature;BME280_humidity;BME280_pressure;Samples;Min_cycle;Max_cycle;Signal;HPM_P1;HPM_P2
2022/10/26 00:00:12;;;;;;;5.30;1.52;;;12.50;99.90;;;;;;4989297;28;20027;-77
2022/10/26 00:02:38;;;;;;;4.82;2.00;;;12.40;99.90;;;;;;4988949;28;20150;-77
2022/10/26 00:05:04;;;;;;;4.03;2.13;;;12.30;99.90;;;;;;4990174;28;20108;-77
2022/10/26 00:07:30;;;;;;;7.45;2.05;;;12.20;99.90;;;;;;4990524;28;20158;-76
2022/10/26 00:09:56;;;;;;;2.13;1.85;;;12.10;99.90;;;;;;4990270;28;20125;-76
2022/10/26 00:12:21;;;;;;;13.23;1.67;;;12.00;99.90;;;;;;4991525;28;20045;-76
2022/10/26 00:14:47;;;;;;;8.15;2.22;;;11.90;99.90;;;;;;4991564;28;20471;-76
2022/10/26 00:17:12;;;;;;;5.40;2.13;;;11.70;99.90;;;;;;4990102;28;20033;-76
2022/10/26 00:19:38;;;;;;;2.45;1.92;;;11.70;99.90;;;;;;4992269;28;20041;-77
2022/10/26 00:22:04;;;;;;;2.00;1.88;;;11.50;99.90;;;;;;4991597;28;20393;-76
2022/10/26 00:24:30;;;;;;;2.70;1.80;;;;;;;;;;4992756;28;20060;-76
2022/10/26 00:26:56;;;;;;;1.67;1.55;;;11.40;99.90;;;;;;4993045;28;20026;-76
2022/10/26 00:29:21;;;;;;;1.88;1.67;;;11.40;99.90;;;;;;4993114;28;20026;-76
2022/10/26 00:31:47;;;;;;;1.95;1.30;;;11.40;99.90;;;;;;4992566;28;20030;-76
2022/10/26 00:34:13;;;;;;;10.43;1.92;;;11.40;99.90;;;;;;4993192;28;20030;-76
2022/10/26 00:36:38;;;;;;;5.72;2.13;;;11.30;99.90;;;;;;4991826;28;20431;-76
2022/10/26 00:39:04;;;;;;;2.50;2.03;;;11.30;99.90;;;;;;4992996;28;20415;-76
2022/10/26 00:41:32;;;;;;;3.17;1.73;;;11.30;99.90;;;;;;4993082;28;20022;-77
2022/10/26 00:43:59;;;;;;;2.35;1.67;;;;;;;;;;4992729;28;20105;-76
2022/10/26 00:46:31;;;;;;;1.48;1.38;;;11.30;99.90;;;;;;4992507;28;20037;-76
2022/10/26 00:49:12;;;;;;;3.08;1.77;;;11.30;99.90;;;;;;4991228;28;20029;-76
2022/10/26 00:51:42;;;;;;;4.15;1.98;;;11.30;99.90;;;;;;4992477;28;20505;-76
2022/10/26 00:54:17;;;;;;;11.77;2.47;;;11.40;99.90;;;;;;4992422;28;20034;-76
2022/10/26 00:56:44;;;;;;;1.55;1.45;;;11.30;99.90;;;;;;4992608;28;20024;-76
2022/10/26 00:59:11;;;;;;;2.67;1.73;;;11.30;99.90;;;;;;4991139;28;20073;-76
2022/10/26 01:01:42;;;;;;;2.53;1.90;;;11.40;99.90;;;;;;4992631;28;20101;-77
2022/10/26 01:04:08;;;;;;;3.63;1.80;;;11.40;99.90;;;;;;4991031;28;20523;-76
2022/10/26 01:06:36;;;;;;;1.83;1.73;;;11.40;99.90;;;;;;4991018;28;20026;-76
2022/10/26 01:09:02;;;;;;;1.00;1.00;;;11.40;99.90;;;;;;4990746;28;20056;-76
2022/10/26 01:11:28;;;;;;;10.10;3.17;;;11.50;99.90;;;;;;4992058;28;20034;-77
2022/10/26 01:13:55;;;;;;;1.55;1.42;;;11.50;99.90;;;;;;4992176;28;20038;-77
2022/10/26 01:16:30;;;;;;;3.75;2.65;;;11.60;99.90;;;;;;4992031;28;20018;-76
2022/10/26 01:19:20;;;;;;;4.22;1.98;;;11.70;99.90;;;;;;4990863;28;20038;-77
2022/10/26 01:22:15;;;;;;;2.13;1.70;;;11.80;99.90;;;;;;4992032;28;20035;-76
2022/10/26 01:25:02;;;;;;;1.95;1.83;;;12.00;99.90;;;;;;4983009;28;20118;-76
2022/10/26 01:27:39;;;;;;;4.65;2.70;;;12.20;99.90;;;;;;4992095;28;20379;-76
2022/10/26 01:30:40;;;;;;;7.47;2.17;;;12.30;99.90;;;;;;4990457;28;20018;-76
2022/10/26 01:33:18;;;;;;;7.13;2.72;;;12.20;99.90;;;;;;4990084;28;20372;-77
2022/10/26 01:36:01;;;;;;;4.20;1.95;;;12.20;99.90;;;;;;4989968;28;20395;-76
2022/10/26 01:38:46;;;;;;;4.13;2.00;;;12.20;99.90;;;;;;4990057;28;20169;-76
2022/10/26 01:41:19;;;;;;;2.35;2.05;;;12.30;99.90;;;;;;4989076;28;20030;-76
2022/10/26 01:44:03;;;;;;;2.75;1.73;;;12.30;99.90;;;;;;4990340;28;20173;-76
2022/10/26 01:46:33;;;;;;;4.15;2.30;;;12.30;99.90;;;;;;4990536;28;20050;-77
2022/10/26 01:49:05;;;;;;;2.30;2.00;;;12.50;99.90;;;;;;4990127;28;20014;-76
2022/10/26 01:51:31;;;;;;;3.20;2.33;;;12.40;99.90;;;;;;4991409;28;20085;-76
2022/10/26 01:53:57;;;;;;;3.95;3.05;;;12.40;99.90;;;;;;4990092;28;20034;-76
2022/10/26 01:56:28;;;;;;;4.00;2.40;;;12.50;99.90;;;;;;4991546;28;20105;-76
2022/10/26 01:59:33;;;;;;;3.70;2.35;;;12.40;99.90;;;;;;4991793;28;20027;-76
2022/10/26 02:02:36;;;;;;;1.80;1.65;;;12.40;99.90;;;;;;4983731;28;20057;-76
2022/10/26 02:05:28;;;;;;;9.27;2.33;;;12.40;99.90;;;;;;4998119;28;20068;-77
2022/10/26 02:08:30;;;;;;;7.90;2.53;;;12.40;99.90;;;;;;4997313;28;20072;-78
2022/10/26 02:11:37;;;;;;;3.83;2.42;;;12.40;99.90;;;;;;4998399;28;20026;-77
2022/10/26 02:14:07;;;;;;;2.60;2.40;;;12.40;99.90;;;;;;4996458;28;20030;-79
2022/10/26 02:17:01;;;;;;;3.72;2.33;;;12.50;99.90;;;;;;4991906;28;20021;-76
2022/10/26 02:19:32;;;;;;;3.97;2.97;;;12.50;99.90;;;;;;4989976;28;20451;-77
2022/10/26 02:22:14;;;;;;;5.15;3.15;;;12.50;99.90;;;;;;4991114;28;20035;-76
2022/10/26 02:24:41;;;;;;;3.95;2.25;;;12.60;99.90;;;;;;4989928;28;20049;-77
2022/10/26 02:27:10;;;;;;;3.20;2.58;;;12.60;99.90;;;;;;4990900;28;20038;-76
2022/10/26 02:29:37;;;;;;;7.10;2.50;;;12.70;99.90;;;;;;4991142;28;20027;-76
2022/10/26 02:32:06;;;;;;;4.25;3.03;;;12.60;99.90;;;;;;4990541;28;20253;-76
2022/10/26 02:34:34;;;;;;;6.90;2.75;;;12.60;99.90;;;;;;4989625;28;20438;-76
2022/10/26 02:37:01;;;;;;;6.53;3.25;;;12.60;99.90;;;;;;4989503;28;20026;-76
2022/10/26 02:39:31;;;;;;;6.55;2.50;;;12.60;99.90;;;;;;4990796;28;20027;-76
2022/10/26 02:42:03;;;;;;;4.78;2.03;;;12.60;99.90;;;;;;4990998;28;20036;-76
2022/10/26 02:44:35;;;;;;;3.90;1.88;;;12.50;99.90;;;;;;4990770;28;20030;-76
2022/10/26 02:47:01;;;;;;;4.22;2.50;;;12.50;99.90;;;;;;4990432;28;20045;-76
2022/10/26 02:49:27;;;;;;;3.92;2.35;;;12.40;99.90;;;;;;4990737;28;20376;-76
2022/10/26 02:52:11;;;;;;;4.95;2.13;;;12.30;99.90;;;;;;4990729;28;20026;-77
2022/10/26 02:54:37;;;;;;;6.00;1.88;;;12.30;99.90;;;;;;4990651;28;20034;-76
2022/10/26 02:57:15;;;;;;;3.58;2.28;;;12.30;99.90;;;;;;4989416;28;20026;-76
2022/10/26 02:59:43;;;;;;;3.33;2.03;;;12.30;99.90;;;;;;4988439;28;20468;-76
2022/10/26 03:02:10;;;;;;;2.00;1.90;;;12.30;99.90;;;;;;4990679;28;20030;-76
2022/10/26 03:04:36;;;;;;;1.95;1.55;;;12.20;99.90;;;;;;4989374;28;20520;-76
2022/10/26 03:07:02;;;;;;;3.95;2.35;;;12.20;99.90;;;;;;4990878;28;20058;-76
2022/10/26 03:09:27;;;;;;;1.75;1.60;;;12.20;99.90;;;;;;4990704;28;20049;-76
2022/10/26 03:11:53;;;;;;;3.88;2.42;;;;;;;;;;4990485;28;20542;-76
2022/10/26 03:14:19;;;;;;;2.78;1.85;;;12.20;99.90;;;;;;4990231;28;20398;-76
2022/10/26 03:16:45;;;;;;;3.50;1.88;;;12.30;99.90;;;;;;4990378;28;20102;-76
2022/10/26 03:19:11;;;;;;;6.97;2.45;;;12.30;99.90;;;;;;4990236;28;20027;-76
2022/10/26 03:21:37;;;;;;;2.92;2.15;;;12.20;99.90;;;;;;4990041;28;20053;-76
2022/10/26 03:24:02;;;;;;;1.63;1.52;;;12.30;99.90;;;;;;4990333;28;20026;-76
2022/10/26 03:26:28;;;;;;;4.15;2.42;;;12.40;99.90;;;;;;4990340;28;20026;-76
2022/10/26 03:28:54;;;;;;;10.98;3.42;;;12.40;99.90;;;;;;4990335;28;20053;-76
2022/10/26 03:31:19;;;;;;;5.15;2.40;;;12.60;99.90;;;;;;4990006;28;20022;-76
2022/10/26 03:33:45;;;;;;;1.73;1.63;;;12.50;99.90;;;;;;4988984;28;20476;-76
2022/10/26 03:36:11;;;;;;;6.03;1.95;;;12.50;99.90;;;;;;4990182;28;20027;-76
2022/10/26 03:38:36;;;;;;;5.38;1.65;;;12.60;99.90;;;;;;4990293;28;20058;-76
2022/10/26 03:41:02;;;;;;;4.90;1.55;;;12.60;99.90;;;;;;4988991;28;20041;-76
2022/10/26 03:43:27;;;;;;;1.75;1.65;;;12.60;99.90;;;;;;4990408;28;20023;-76
2022/10/26 03:45:53;;;;;;;3.22;2.03;;;12.50;99.90;;;;;;4989816;28;20607;-76
2022/10/26 03:48:19;;;;;;;3.75;2.05;;;12.50;99.90;;;;;;4990087;28;20165;-76
2022/10/26 03:50:45;;;;;;;4.22;1.50;;;10.10;99.90;;;;;;4990270;28;20093;-76
2022/10/26 03:53:11;;;;;;;3.83;1.85;;;;;;;;;;4989997;28;20036;-76
2022/10/26 03:55:36;;;;;;;10.00;2.15;;;12.50;99.90;;;;;;4990272;28;20459;-76
2022/10/26 03:58:02;;;;;;;3.10;2.22;;;12.40;99.90;;;;;;4990166;28;20030;-76
2022/10/26 04:00:28;;;;;;;3.40;2.15;;;12.40;99.90;;;;;;4988804;28;20026;-77
2022/10/26 04:02:58;;;;;;;2.25;1.90;;;12.40;99.90;;;;;;4989908;28;20110;-77
2022/10/26 04:05:26;;;;;;;2.20;1.88;;;12.30;99.90;;;;;;4989931;28;20077;-76
2022/10/26 04:07:54;;;;;;;9.40;1.75;;;12.30;99.90;;;;;;4989807;28;20034;-76
2022/10/26 04:10:20;;;;;;;3.35;2.30;;;12.30;99.90;;;;;;4989820;28;20023;-76
2022/10/26 04:12:45;;;;;;;2.20;1.95;;;12.30;99.90;;;;;;4991750;28;20049;-76
2022/10/26 04:15:11;;;;;;;4.85;2.67;;;12.30;99.90;;;;;;4992040;28;20022;-76
2022/10/26 04:17:37;;;;;;;4.43;2.10;;;12.30;99.90;;;;;;4993216;28;20037;-76
2022/10/26 04:20:03;;;;;;;2.25;2.05;;;12.40;99.90;;;;;;4993717;28;20098;-76
2022/10/26 04:22:29;;;;;;;4.15;2.42;;;12.40;99.90;;;;;;4991687;28;20503;-76
2022/10/26 04:24:54;;;;;;;2.30;2.10;;;12.40;99.90;;;;;;4993145;28;20044;-76
2022/10/26 04:27:20;;;;;;;4.03;2.53;;;12.40;99.90;;;;;;4993166;28;20102;-76
2022/10/26 04:29:46;;;;;;;2.53;2.33;;;12.40;99.90;;;;;;4993079;28;20028;-76
2022/10/26 04:32:11;;;;;;;6.05;2.58;;;12.50;99.90;;;;;;4993012;28;20472;-76
2022/10/26 04:34:37;;;;;;;5.78;2.58;;;12.50;99.90;;;;;;4993173;28;20392;-76
2022/10/26 04:37:03;;;;;;;6.72;2.70;;;12.50;99.90;;;;;;4993042;28;20022;-76
2022/10/26 04:39:28;;;;;;;5.95;3.28;;;12.50;99.90;;;;;;4992959;28;20514;-76
2022/10/26 04:41:54;;;;;;;3.30;2.95;;;;;;;;;;4992733;28;20130;-76
2022/10/26 04:44:20;;;;;;;13.60;3.05;;;;;;;;;;4992833;28;20138;-76
2022/10/26 04:46:46;;;;;;;4.97;2.25;;;12.60;99.90;;;;;;4992773;28;20081;-76
2022/10/26 04:49:12;;;;;;;3.83;2.38;;;12.50;99.90;;;;;;4992805;28;20519;-76
2022/10/26 04:51:38;;;;;;;3.22;2.05;;;12.50;99.90;;;;;;4993097;28;20038;-76
2022/10/26 04:54:03;;;;;;;3.97;2.38;;;12.40;99.90;;;;;;4992610;28;20502;-76
2022/10/26 04:56:29;;;;;;;2.95;2.22;;;12.40;99.90;;;;;;4992908;28;20101;-76
2022/10/26 04:58:55;;;;;;;9.50;2.72;;;12.30;99.90;;;;;;4992585;28;20506;-77
2022/10/26 05:01:21;;;;;;;2.67;1.80;;;12.30;99.90;;;;;;4992124;28;20030;-76
2022/10/26 05:03:51;;;;;;;7.75;2.35;;;12.30;99.90;;;;;;4992590;28;20486;-76
2022/10/26 05:06:18;;;;;;;5.72;2.95;;;12.30;99.90;;;;;;4991115;28;20031;-76
2022/10/26 05:08:43;;;;;;;3.53;2.38;;;12.30;99.90;;;;;;4992560;28;20305;-77
2022/10/26 05:11:09;;;;;;;2.22;2.00;;;12.30;99.90;;;;;;4992491;28;20280;-75
2022/10/26 05:13:35;;;;;;;6.20;2.72;;;12.30;99.90;;;;;;4992027;28;20030;-77
2022/10/26 05:16:00;;;;;;;4.10;2.00;;;12.30;99.90;;;;;;4990556;28;20022;-76
2022/10/26 05:18:26;;;;;;;13.13;4.38;;;12.30;99.90;;;;;;4991983;28;20435;-76
2022/10/26 05:20:53;;;;;;;6.10;2.22;;;12.30;99.90;;;;;;4992000;28;20038;-75
2022/10/26 05:23:19;;;;;;;8.80;2.50;;;12.30;99.90;;;;;;4989867;28;20414;-76
2022/10/26 05:25:45;;;;;;;2.80;1.98;;;12.30;99.90;;;;;;4992141;28;20424;-75
2022/10/26 05:28:12;;;;;;;7.80;3.42;;;12.40;99.90;;;;;;4990739;28;20506;-76
2022/10/26 05:30:38;;;;;;;2.95;2.63;;;12.40;99.90;;;;;;4991876;28;20045;-76
2022/10/26 05:33:06;;;;;;;2.88;2.22;;;12.50;99.90;;;;;;4991852;28;20491;-76
2022/10/26 05:35:32;;;;;;;2.85;2.47;;;12.40;99.90;;;;;;4991864;28;20170;-76
2022/10/26 05:37:59;;;;;;;3.92;2.95;;;12.30;99.90;;;;;;4991841;28;20037;-77
2022/10/26 05:40:25;;;;;;;1.85;1.65;;;12.30;99.90;;;;;;4991752;28;20252;-75
2022/10/26 05:42:51;;;;;;;3.13;2.03;;;12.30;99.90;;;;;;5006593;28;20030;-76
2022/10/26 05:45:17;;;;;;;2.35;1.77;;;12.20;99.90;;;;;;4991795;28;20037;-76
2022/10/26 05:47:44;;;;;;;3.50;2.53;;;12.20;99.90;;;;;;4984474;28;20030;-76
2022/10/26 05:50:11;;;;;;;4.35;2.92;;;12.20;99.90;;;;;;4991363;28;20264;-75
2022/10/26 05:52:43;;;;;;;3.17;2.60;;;12.10;99.90;;;;;;4989307;28;20155;-76
2022/10/26 05:55:11;;;;;;;4.72;2.80;;;12.10;99.90;;;;;;4988048;28;20054;-76
2022/10/26 05:57:38;;;;;;;8.57;2.45;;;12.10;99.90;;;;;;4991362;28;20038;-76
2022/10/26 06:00:25;;;;;;;2.58;2.05;;;12.10;99.90;;;;;;4990562;28;20033;-76
2022/10/26 06:03:06;;;;;;;2.55;2.13;;;12.10;99.90;;;;;;4990615;28;20026;-75
2022/10/26 06:05:49;;;;;;;5.40;1.50;;;12.10;99.90;;;;;;4991277;28;20019;-76
2022/10/26 06:08:15;;;;;;;3.03;2.15;;;12.10;99.90;;;;;;4991820;28;20096;-76
2022/10/26 06:10:41;;;;;;;2.78;2.08;;;12.00;99.90;;;;;;4989697;28;20483;-76
2022/10/26 06:13:06;;;;;;;3.13;2.25;;;12.10;99.90;;;;;;4991343;28;20039;-75
2022/10/26 06:15:43;;;;;;;3.53;2.20;;;12.10;99.90;;;;;;4985247;28;20117;-76
2022/10/26 06:18:08;;;;;;;2.78;2.17;;;12.10;99.90;;;;;;4989827;28;20112;-76
2022/10/26 06:20:41;;;;;;;4.68;2.28;;;12.20;99.90;;;;;;4990761;28;20543;-76
2022/10/26 06:23:07;;;;;;;8.43;2.30;;;12.20;99.90;;;;;;4991056;28;20033;-76
2022/10/26 06:26:01;;;;;;;1.95;1.50;;;12.10;99.90;;;;;;4990918;28;20018;-76
2022/10/26 06:28:52;;;;;;;3.60;2.35;;;12.10;99.90;;;;;;4986557;28;20053;-76
2022/10/26 06:31:17;;;;;;;6.22;1.77;;;12.20;99.90;;;;;;4990375;28;20022;-76
2022/10/26 06:33:43;;;;;;;3.22;2.30;;;12.20;99.90;;;;;;4981749;28;20122;-76
2022/10/26 06:36:22;;;;;;;4.22;1.65;;;12.30;99.90;;;;;;4979207;28;20369;-76
2022/10/26 06:38:51;;;;;;;5.53;2.10;;;12.30;99.90;;;;;;4981360;28;20035;-76
2022/10/26 06:41:18;;;;;;;1.75;1.65;;;12.30;99.90;;;;;;4980145;28;20022;-75
2022/10/26 06:43:44;;;;;;;5.95;2.38;;;12.30;99.90;;;;;;4981515;28;20058;-76
2022/10/26 06:46:38;;;;;;;2.67;2.20;;;12.30;99.90;;;;;;4979608;28;20030;-76
2022/10/26 06:49:30;;;;;;;3.05;2.03;;;12.40;99.90;;;;;;4981321;28;20488;-76
2022/10/26 06:52:03;;;;;;;2.85;1.83;;;12.40;99.90;;;;;;4977117;28;20027;-76
2022/10/26 06:54:50;;;;;;;6.05;1.77;;;12.50;99.90;;;;;;4977170;28;20122;-76
2022/10/26 06:57:20;;;;;;;2.50;2.10;;;12.50;99.90;;;;;;4971579;28;20023;-77
2022/10/26 06:59:53;;;;;;;3.67;2.63;;;11.30;99.90;;;;;;4969602;28;20030;-76
2022/10/26 07:02:19;;;;;;;4.28;1.60;;;12.60;99.90;;;;;;4970648;28;20455;-76
2022/10/26 07:04:45;;;;;;;1.73;1.45;;;12.60;99.90;;;;;;4970845;28;20118;-77
2022/10/26 07:07:14;;;;;;;6.53;3.30;;;12.70;99.90;;;;;;4974207;28;20030;-76
2022/10/26 07:09:40;;;;;;;3.17;1.85;;;12.60;99.90;;;;;;4988751;28;20027;-76
2022/10/26 07:12:06;;;;;;;2.38;1.92;;;12.60;99.90;;;;;;4988678;28;20089;-76
2022/10/26 07:14:31;;;;;;;4.10;2.25;;;12.70;99.90;;;;;;4988712;28;20550;-76
2022/10/26 07:16:57;;;;;;;3.17;2.00;;;12.70;99.90;;;;;;4986829;28;20038;-76
2022/10/26 07:19:23;;;;;;;1.50;1.38;;;12.70;99.90;;;;;;4988582;28;20031;-77
2022/10/26 07:21:49;;;;;;;6.07;2.33;;;12.80;99.90;;;;;;4988327;28;20054;-77
2022/10/26 07:24:15;;;;;;;2.60;1.98;;;12.90;99.90;;;;;;4989365;28;20030;-76
2022/10/26 07:26:40;;;;;;;1.83;1.70;;;13.00;99.90;;;;;;4990110;28;20054;-77
2022/10/26 07:29:06;;;;;;;2.67;2.10;;;13.20;99.90;;;;;;4989732;28;20077;-77
2022/10/26 07:31:32;;;;;;;2.92;2.33;;;13.30;99.90;;;;;;4989469;28;20081;-77
2022/10/26 07:33:57;;;;;;;5.13;2.47;;;13.50;99.90;;;;;;4989671;28;20030;-75
2022/10/26 07:36:23;;;;;;;5.00;1.67;;;13.60;99.90;;;;;;4989953;28;20031;-75
2022/10/26 07:38:52;;;;;;;5.10;2.53;;;13.60;99.90;;;;;;4988638;28;20030;-76
2022/10/26 07:41:19;;;;;;;2.08;1.98;;;13.70;99.90;;;;;;4989696;28;20026;-77
2022/10/26 07:43:44;;;;;;;2.95;2.50;;;13.80;99.90;;;;;;4989620;28;20026;-76
2022/10/26 07:46:11;;;;;;;2.42;2.17;;;13.90;99.90;;;;;;4990395;28;20076;-76
2022/10/26 07:48:38;;;;;;;5.43;3.05;;;13.90;99.90;;;;;;4992622;28;20046;-77
2022/10/26 07:51:04;;;;;;;5.85;2.10;;;13.90;99.90;;;;;;4992928;28;20529;-76
2022/10/26 07:53:29;;;;;;;2.70;2.22;;;13.90;99.90;;;;;;4989446;28;20168;-76
2022/10/26 07:55:56;;;;;;;5.75;2.45;;;14.00;99.90;;;;;;4985938;28;20518;-76
2022/10/26 07:58:24;;;;;;;4.18;2.90;;;14.00;99.90;;;;;;4991285;28;20022;-76
2022/10/26 08:00:51;;;;;;;3.33;2.03;;;14.10;99.90;;;;;;4978710;28;20072;-77
2022/10/26 08:03:17;;;;;;;12.27;2.92;;;14.10;99.90;;;;;;4970633;28;20038;-76
2022/10/26 08:05:50;;;;;;;3.83;1.83;;;14.10;99.90;;;;;;4970692;28;20453;-77
2022/10/26 08:08:17;;;;;;;2.00;1.85;;;14.10;99.90;;;;;;4981832;28;20025;-77
2022/10/26 08:10:43;;;;;;;5.10;2.33;;;14.00;99.90;;;;;;4989334;28;20338;-77
2022/10/26 08:13:10;;;;;;;4.88;2.53;;;14.20;99.90;;;;;;4977950;28;20039;-76
2022/10/26 08:15:35;;;;;;;7.68;3.42;;;14.10;99.90;;;;;;4968356;28;20034;-76
2022/10/26 08:18:01;;;;;;;4.63;3.65;;;14.10;99.90;;;;;;4977754;28;20049;-78
2022/10/26 08:20:27;;;;;;;9.52;3.30;;;14.20;99.90;;;;;;4985827;28;20514;-76
2022/10/26 08:22:55;;;;;;;8.45;4.35;;;14.20;99.90;;;;;;4987606;28;20125;-77
2022/10/26 08:25:21;;;;;;;6.63;3.63;;;14.30;99.90;;;;;;4996872;28;20022;-77
2022/10/26 08:27:47;;;;;;;8.95;3.08;;;14.50;99.90;;;;;;4992649;28;20088;-76
2022/10/26 08:30:13;;;;;;;3.45;2.45;;;14.70;99.90;;;;;;4989130;28;20105;-76
2022/10/26 08:32:38;;;;;;;7.78;2.75;;;14.90;99.90;;;;;;4987919;28;20542;-76
2022/10/26 08:35:04;;;;;;;5.07;2.95;;;15.00;99.90;;;;;;4989967;28;20037;-76
2022/10/26 08:37:30;;;;;;;5.93;4.47;;;15.10;99.90;;;;;;4989873;28;20165;-76
2022/10/26 08:39:56;;;;;;;3.95;2.33;;;15.20;99.90;;;;;;4988659;28;20543;-77
2022/10/26 08:42:29;;;;;;;3.10;2.45;;;15.20;99.90;;;;;;4988004;28;20045;-78
2022/10/26 08:45:04;;;;;;;6.43;2.92;;;15.20;99.90;;;;;;4989594;28;20474;-79
2022/10/26 08:47:34;;;;;;;4.47;3.20;;;15.20;99.90;;;;;;4988793;28;20029;-76
2022/10/26 08:50:16;;;;;;;10.10;2.88;;;15.30;99.90;;;;;;4987595;28;20197;-77
2022/10/26 08:53:02;;;;;;;7.82;2.22;;;15.30;99.90;;;;;;4986803;28;20292;-76
2022/10/26 08:55:37;;;;;;;6.50;2.10;;;15.40;99.90;;;;;;4987680;28;20223;-78
2022/10/26 08:58:09;;;;;;;5.75;1.67;;;15.30;99.90;;;;;;4985808;28;20022;-76
2022/10/26 09:00:37;;;;;;;6.70;1.67;;;15.40;99.90;;;;;;4985144;28;20468;-77
2022/10/26 09:03:12;;;;;;;11.10;2.58;;;15.40;99.90;;;;;;4989608;28;20029;-77
2022/10/26 09:06:11;;;;;;;8.23;3.70;;;15.60;99.90;;;;;;4972012;28;20097;-77
2022/10/26 09:08:55;;;;;;;7.60;1.83;;;15.70;99.90;;;;;;4974379;28;20038;-75
2022/10/26 09:11:36;;;;;;;5.38;1.95;;;15.70;99.90;;;;;;4987327;28;20120;-77
2022/10/26 09:14:05;;;;;;;1.45;1.25;;;15.80;99.90;;;;;;4967519;28;20118;-75
2022/10/26 09:16:49;;;;;;;1.85;1.50;;;15.90;99.90;;;;;;4967189;28;20549;-75
2022/10/26 09:19:47;;;;;;;2.25;1.92;;;15.90;99.90;;;;;;4967293;28;20571;-76
2022/10/26 09:22:25;;;;;;;6.60;1.75;;;16.10;99.90;;;;;;4966882;28;20050;-75
2022/10/26 09:24:56;;;;;;;1.73;1.63;;;16.20;99.90;;;;;;4969254;28;20034;-76
2022/10/26 09:27:30;;;;;;;4.80;1.45;;;16.20;99.90;;;;;;4979294;28;20030;-76
2022/10/26 09:29:59;;;;;;;2.95;1.25;;;16.30;99.90;;;;;;4985665;28;20126;-75
2022/10/26 09:32:39;;;;;;;4.63;1.65;;;16.40;99.90;;;;;;4985031;28;20026;-76
2022/10/26 09:35:18;;;;;;;2.03;1.92;;;16.50;99.90;;;;;;4986342;28;20030;-76
2022/10/26 09:37:53;;;;;;;1.88;1.05;;;16.50;99.90;;;;;;4988156;28;20037;-76
2022/10/26 09:40:30;;;;;;;3.53;1.45;;;16.60;99.90;;;;;;4988049;28;20176;-75
2022/10/26 09:43:09;;;;;;;3.17;1.17;;;16.80;99.90;;;;;;4988431;28;20321;-76
2022/10/26 09:45:40;;;;;;;;;;;16.90;99.90;;;;;;4988678;28;20022;-76
2022/10/26 09:48:34;;;;;;;2.38;1.95;;;17.10;99.90;;;;;;4987993;28;19916;-77
2022/10/26 09:51:00;;;;;;;3.05;1.50;;;17.20;99.90;;;;;;4968289;28;20187;-76
2022/10/26 09:53:26;;;;;;;1.40;1.17;;;17.40;99.90;;;;;;4968522;28;20113;-76
2022/10/26 09:56:04;;;;;;;8.50;1.83;;;17.50;99.90;;;;;;4968147;28;20029;-76
2022/10/26 09:58:35;;;;;;;2.13;1.15;;;17.70;99.90;;;;;;4968191;28;20098;-76
2022/10/26 10:01:01;;;;;;;4.30;1.40;;;17.90;99.90;;;;;;4967679;28;20026;-77
2022/10/26 10:03:29;;;;;;;6.40;1.52;;;18.20;99.90;;;;;;4966277;28;20033;-77
2022/10/26 10:06:22;;;;;;;7.75;2.28;;;18.30;99.90;;;;;;4966353;28;20038;-77
2022/10/26 10:09:11;;;;;;;3.33;1.80;;;18.60;99.90;;;;;;4963505;28;20027;-77
2022/10/26 10:11:43;;;;;;;4.22;1.23;;;18.60;99.90;;;;;;4968807;28;20073;-77
2022/10/26 10:14:15;;;;;;;1.48;0.80;;;18.90;99.90;;;;;;4988802;28;20494;-77
2022/10/26 10:16:50;;;;;;;5.70;2.13;;;18.90;99.90;;;;;;4985343;28;20463;-76
2022/10/26 10:19:28;;;;;;;2.47;1.27;;;18.90;99.90;;;;;;4981695;28;20108;-76
2022/10/26 10:21:57;;;;;;;7.60;1.67;;;18.90;99.90;;;;;;4983791;28;20066;-76
2022/10/26 10:24:30;;;;;;;;;;;18.90;99.90;;;;;;4967752;28;20023;-77
2022/10/26 10:27:14;;;;;;;4.43;1.95;;;18.80;99.90;;;;;;4965483;28;20000;-76
2022/10/26 10:29:41;;;;;;;2.60;1.95;;;18.70;99.90;;;;;;4967854;28;20024;-76
2022/10/26 10:32:24;;;;;;;9.10;1.73;;;18.70;99.90;;;;;;4981673;28;20028;-77
2022/10/26 10:34:54;;;;;;;3.08;0.98;;;18.80;99.90;;;;;;4986308;28;20034;-77
2022/10/26 10:37:29;;;;;;;4.32;1.52;;;18.80;99.90;;;;;;4986942;28;20026;-77
2022/10/26 10:40:01;;;;;;;1.77;1.15;;;18.90;99.90;;;;;;4987094;28;20030;-78
2022/10/26 10:42:31;;;;;;;2.33;1.00;;;19.00;99.90;;;;;;4986444;28;20018;-77
2022/10/26 10:44:58;;;;;;;6.20;1.38;;;19.00;99.90;;;;;;4985147;28;20065;-77
2022/10/26 10:47:27;;;;;;;5.63;1.52;;;19.20;99.90;;;;;;4985647;28;20026;-76
2022/10/26 10:50:04;;;;;;;2.95;1.02;;;19.30;99.90;;;;;;4987466;28;20030;-78
2022/10/26 10:52:33;;;;;;;10.13;1.80;;;19.50;99.90;;;;;;4986851;28;20022;-77
2022/10/26 10:55:16;;;;;;;5.38;1.38;;;19.70;99.90;;;;;;4986546;28;20580;-77
2022/10/26 10:57:59;;;;;;;4.97;1.90;;;19.80;99.90;;;;;;4986117;28;20038;-76
2022/10/26 11:00:25;;;;;;;7.93;2.28;;;19.90;99.90;;;;;;4964881;28;20100;-77
2022/10/26 11:03:18;;;;;;;7.55;1.48;;;20.00;99.90;;;;;;4967620;28;20472;-76
2022/10/26 11:06:16;;;;;;;3.97;1.63;;;20.10;99.90;;;;;;4966085;28;20464;-77
2022/10/26 11:09:03;;;;;;;9.45;2.85;;;20.20;99.90;;;;;;4966569;28;20424;-77
2022/10/26 11:11:36;;;;;;;5.13;1.75;;;20.40;99.90;;;;;;4968483;28;20034;-77
2022/10/26 11:14:14;;;;;;;9.32;1.63;;;20.40;99.90;;;;;;4967126;28;20488;-79
2022/10/26 11:16:45;;;;;;;1.92;1.75;;;20.40;99.90;;;;;;4967204;28;20563;-78
2022/10/26 11:19:23;;;;;;;7.35;1.23;;;20.50;99.90;;;;;;4967075;28;20031;-77
2022/10/26 11:21:54;;;;;;;3.75;1.63;;;20.50;99.90;;;;;;4968796;28;20050;-79
2022/10/26 11:24:43;;;;;;;1.42;0.95;;;20.70;99.90;;;;;;4971381;28;20031;-78
2022/10/26 11:27:11;;;;;;;;;;;20.80;99.90;;;;;;4982307;28;20034;-79
2022/10/26 11:30:05;;;;;;;4.60;1.38;;;20.90;99.90;;;;;;4985926;28;19920;-77
2022/10/26 11:32:45;;;;;;;3.38;1.13;;;21.00;99.90;;;;;;4990442;28;20201;-78
2022/10/26 11:35:17;;;;;;;3.63;1.65;;;21.00;99.90;;;;;;4990675;28;20489;-77
2022/10/26 11:38:00;;;;;;;3.40;1.10;;;20.80;99.90;;;;;;5005226;28;20034;-77
2022/10/26 11:40:46;;;;;;;2.95;1.73;;;20.70;99.90;;;;;;4990322;28;20026;-79
2022/10/26 11:43:23;;;;;;;5.38;1.75;;;20.60;99.90;;;;;;4988469;28;20118;-78
2022/10/26 11:46:05;;;;;;;7.65;1.30;;;20.60;99.90;;;;;;4990222;28;20076;-78
2022/10/26 11:49:10;;;;;;;4.47;1.40;;;20.60;99.90;;;;;;4989044;28;20066;-78
2022/10/26 11:52:01;;;;;;;5.05;1.98;;;20.70;99.90;;;;;;4988812;28;20084;-79
2022/10/26 11:54:46;;;;;;;1.92;1.73;;;20.70;99.90;;;;;;4987830;28;20121;-77
2022/10/26 11:57:14;;;;;;;3.58;1.42;;;20.70;99.90;;;;;;4988520;28;20029;-76
2022/10/26 11:59:47;;;;;;;2.50;1.75;;;20.70;99.90;;;;;;4976194;28;20027;-78
2022/10/26 12:02:18;;;;;;;3.83;1.00;;;20.70;99.90;;;;;;4994575;28;20410;-78
2022/10/26 12:04:48;;;;;;;6.43;1.90;;;20.70;99.90;;;;;;4975853;28;20117;-78
2022/10/26 12:07:23;;;;;;;6.05;2.13;;;20.70;99.90;;;;;;4972292;28;20476;-78
2022/10/26 12:09:50;;;;;;;11.88;1.65;;;;;;;;;;4985819;28;20036;-79
2022/10/26 12:12:31;;;;;;;6.88;2.08;;;20.80;99.90;;;;;;4989665;28;20215;-76
2022/10/26 12:15:24;;;;;;;4.70;2.13;;;21.00;99.90;;;;;;4992179;28;20038;-78
2022/10/26 12:18:11;;;;;;;1.67;1.13;;;21.00;99.90;;;;;;4987662;28;20108;-79
2022/10/26 12:21:01;;;;;;;2.00;1.27;;;21.10;99.90;;;;;;5013878;28;20056;-79
2022/10/26 12:23:37;;;;;;;3.83;1.33;;;21.30;99.90;;;;;;5000072;28;20627;-78
2022/10/26 12:26:26;;;;;;;3.38;1.23;;;21.80;99.90;;;;;;4999640;28;20081;-78
2022/10/26 12:29:01;;;;;;;13.80;1.40;;;21.90;99.90;;;;;;4998146;28;20026;-78
2022/10/26 12:31:36;;;;;;;7.43;1.95;;;22.60;99.90;;;;;;4978958;28;20256;-77
2022/10/26 12:34:13;;;;;;;7.90;2.75;;;24.10;99.90;;;;;;4973211;28;20055;-78
2022/10/26 12:36:53;;;;;;;7.40;1.73;;;25.40;99.90;;;;;;4970055;28;20030;-77
2022/10/26 12:39:28;;;;;;;4.28;1.67;;;26.20;93.90;;;;;;4969047;28;20101;-78
2022/10/26 12:42:18;;;;;;;14.65;1.67;;;26.90;86.00;;;;;;4969434;28;20027;-78
2022/10/26 12:44:47;;;;;;;4.20;1.50;;;27.30;78.70;;;;;;4959538;28;20472;-77
2022/10/26 12:47:31;;;;;;;6.78;1.42;;;27.30;73.80;;;;;;4969450;28;20138;-80
2022/10/26 12:50:18;;;;;;;5.10;1.33;;;27.10;74.90;;;;;;4968219;28;20041;-79
2022/10/26 12:52:47;;;;;;;13.93;1.83;;;;;;;;;;4969451;28;20049;-78
2022/10/26 12:55:32;;;;;;;5.88;1.38;;;26.50;74.00;;;;;;4969942;28;20026;-78
2022/10/26 12:58:15;;;;;;;1.92;1.35;;;26.50;72.70;;;;;;4967577;28;20066;-78
2022/10/26 13:00:57;;;;;;;5.78;0.82;;;26.90;71.30;;;;;;4969511;28;20030;-78
2022/10/26 13:03:35;;;;;;;10.48;2.03;;;27.10;69.50;;;;;;4969220;28;20037;-78
2022/10/26 13:06:38;;;;;;;1.85;0.90;;;27.60;68.60;;;;;;4967836;28;20031;-78
2022/10/26 13:09:33;;;;;;;5.28;1.80;;;27.90;68.60;;;;;;4967809;28;20037;-78
2022/10/26 13:12:02;;;;;;;8.88;1.60;;;27.80;67.40;;;;;;4960237;28;20031;-77
2022/10/26 13:14:35;;;;;;;3.40;1.67;;;27.80;65.40;;;;;;4968842;28;20046;-78
2022/10/26 13:17:16;;;;;;;4.20;2.45;;;28.20;66.60;;;;;;4968730;28;20039;-78